sensor_id;sensor_type;location;lat;lon;timestamp;pressure;altitude;pressure_sealevel;temperature;humidity
44138;BME280;29800;55.942;37.314;2023-08-01T00:00:18;98918.03;;;15.43;86.62
44138;BME280;29800;55.942;37.314;2023-08-01T00:02:45;98916.69;;;15.40;86.55
44138;BME280;29800;55.942;37.314;2023-08-01T00:05:12;98909.53;;;15.39;86.63
44138;BME280;29800;55.942;37.314;2023-08-01T00:07:38;98918.94;;;15.38;86.84
44138;BME280;29800;55.942;37.314;2023-08-01T00:10:04;98916.47;;;15.37;86.67
44138;BME280;29800;55.942;37.314;2023-08-01T00:12:33;98913.22;;;15.35;86.70
44138;BME280;29800;55.942;37.314;2023-08-01T00:14:59;98917.06;;;15.34;86.92
44138;BME280;29800;55.942;37.314;2023-08-01T00:17:26;98920.13;;;15.32;86.66
44138;BME280;29800;55.942;37.314;2023-08-01T00:19:52;98919.31;;;15.32;86.58
44138;BME280;29800;55.942;37.314;2023-08-01T00:22:18;98912.47;;;15.29;86.68
44138;BME280;29800;55.942;37.314;2023-08-01T00:24:45;98913.56;;;15.28;86.93
44138;BME280;29800;55.942;37.314;2023-08-01T00:27:13;98910.81;;;15.28;87.11
44138;BME280;29800;55.942;37.314;2023-08-01T00:29:40;98911.13;;;15.27;86.75
44138;BME280;29800;55.942;37.314;2023-08-01T00:32:07;98910.31;;;15.26;87.07
44138;BME280;29800;55.942;37.314;2023-08-01T00:34:33;98916.13;;;15.24;87.08
44138;BME280;29800;55.942;37.314;2023-08-01T00:37:00;98916.13;;;15.24;87.11
44138;BME280;29800;55.942;37.314;2023-08-01T00:39:26;98912.84;;;15.22;87.12
44138;BME280;29800;55.942;37.314;2023-08-01T00:41:52;98916.19;;;15.19;86.96
44138;BME280;29800;55.942;37.314;2023-08-01T00:44:19;98913.75;;;15.18;86.60
44138;BME280;29800;55.942;37.314;2023-08-01T00:46:45;98913.22;;;15.16;86.87
44138;BME280;29800;55.942;37.314;2023-08-01T00:49:13;98919.84;;;15.15;86.90
44138;BME280;29800;55.942;37.314;2023-08-01T00:51:40;98915.78;;;15.12;86.66
44138;BME280;29800;55.942;37.314;2023-08-01T00:54:07;98915.56;;;15.09;86.81
44138;BME280;29800;55.942;37.314;2023-08-01T00:56:33;98921.88;;;15.09;86.54
44138;BME280;29800;55.942;37.314;2023-08-01T00:59:00;98921.38;;;15.07;86.98
44138;BME280;29800;55.942;37.314;2023-08-01T01:01:27;98920.03;;;15.04;87.09
44138;BME280;29800;55.942;37.314;2023-08-01T01:03:54;98921.44;;;15.02;86.76
44138;BME280;29800;55.942;37.314;2023-08-01T01:06:41;98929.84;;;15.11;86.96
44138;BME280;29800;55.942;37.314;2023-08-01T01:09:17;98926.94;;;15.02;86.63
44138;BME280;29800;55.942;37.314;2023-08-01T01:11:44;98930.06;;;14.95;86.50
44138;BME280;29800;55.942;37.314;2023-08-01T01:14:11;98930.38;;;14.94;86.47
44138;BME280;29800;55.942;37.314;2023-08-01T01:16:37;98939.25;;;14.91;86.43
44138;BME280;29800;55.942;37.314;2023-08-01T01:19:09;98939.78;;;14.93;86.68
44138;BME280;29800;55.942;37.314;2023-08-01T01:21:38;98932.41;;;14.88;86.38
44138;BME280;29800;55.942;37.314;2023-08-01T01:24:06;98933.78;;;14.85;86.70
44138;BME280;29800;55.942;37.314;2023-08-01T01:26:34;98927.78;;;14.83;86.41
44138;BME280;29800;55.942;37.314;2023-08-01T01:29:02;98936.03;;;14.83;86.70
44138;BME280;29800;55.942;37.314;2023-08-01T01:31:30;98938.28;;;14.81;86.86
44138;BME280;29800;55.942;37.314;2023-08-01T01:33:58;98936.63;;;14.80;86.89
44138;BME280;29800;55.942;37.314;2023-08-01T01:36:24;98936.94;;;14.79;86.99
44138;BME280;29800;55.942;37.314;2023-08-01T01:38:50;98939.69;;;14.79;87.03
44138;BME280;29800;55.942;37.314;2023-08-01T01:41:17;98937.22;;;14.77;87.07
44138;BME280;29800;55.942;37.314;2023-08-01T01:43:43;98934.75;;;14.76;86.98
44138;BME280;29800;55.942;37.314;2023-08-01T01:46:10;98932.00;;;14.76;86.92
44138;BME280;29800;55.942;37.314;2023-08-01T01:48:36;98928.44;;;14.75;86.80
44138;BME280;29800;55.942;37.314;2023-08-01T01:51:03;98932.34;;;14.74;87.03
44138;BME280;29800;55.942;37.314;2023-08-01T01:53:29;98933.97;;;14.75;87.16
44138;BME280;29800;55.942;37.314;2023-08-01T01:55:55;98942.22;;;14.75;87.12
44138;BME280;29800;55.942;37.314;2023-08-01T01:58:21;98935.09;;;14.74;87.06
44138;BME280;29800;55.942;37.314;2023-08-01T02:00:49;98943.88;;;14.76;87.69
44138;BME280;29800;55.942;37.314;2023-08-01T02:03:15;98938.66;;;14.75;87.35
44138;BME280;29800;55.942;37.314;2023-08-01T02:05:41;98943.34;;;14.74;87.34
44138;BME280;29800;55.942;37.314;2023-08-01T02:08:07;98935.09;;;14.74;87.67
44138;BME280;29800;55.942;37.314;2023-08-01T02:10:34;98938.66;;;14.75;87.60
44138;BME280;29800;55.942;37.314;2023-08-01T02:13:00;98933.97;;;14.75;87.73
44138;BME280;29800;55.942;37.314;2023-08-01T02:15:27;98934.75;;;14.76;88.11
44138;BME280;29800;55.942;37.314;2023-08-01T02:17:53;98941.13;;;14.76;88.01
44138;BME280;29800;55.942;37.314;2023-08-01T02:20:19;98941.13;;;14.76;88.12
44138;BME280;29800;55.942;37.314;2023-08-01T02:22:46;98936.94;;;14.79;88.29
44138;BME280;29800;55.942;37.314;2023-08-01T02:25:12;98933.06;;;14.80;88.57
44138;BME280;29800;55.942;37.314;2023-08-01T02:27:39;98930.81;;;14.82;88.70
44138;BME280;29800;55.942;37.314;2023-08-01T02:30:06;98937.69;;;14.84;88.82
44138;BME280;29800;55.942;37.314;2023-08-01T02:32:35;98933.78;;;14.85;89.05
44138;BME280;29800;55.942;37.314;2023-08-01T02:35:03;98931.59;;;14.87;89.20
44138;BME280;29800;55.942;37.314;2023-08-01T02:37:33;98929.34;;;14.89;89.01
44138;BME280;29800;55.942;37.314;2023-08-01T02:40:03;98928.47;;;14.94;89.32
44138;BME280;29800;55.942;37.314;2023-08-01T02:42:34;98924.84;;;14.94;89.35
44138;BME280;29800;55.942;37.314;2023-08-01T02:45:00;98925.69;;;14.94;89.16
44138;BME280;29800;55.942;37.314;2023-08-01T02:47:32;98922.09;;;14.94;88.87
44138;BME280;29800;55.942;37.314;2023-08-01T02:49:58;98926.50;;;14.95;89.02
44138;BME280;29800;55.942;37.314;2023-08-01T02:52:24;98930.91;;;14.96;89.01
44138;BME280;29800;55.942;37.314;2023-08-01T02:54:51;98934.47;;;14.96;88.90
44138;BME280;29800;55.942;37.314;2023-08-01T02:57:17;98932.53;;;14.97;88.67
44138;BME280;29800;55.942;37.314;2023-08-01T02:59:43;98934.19;;;14.98;88.24
44138;BME280;29800;55.942;37.314;2023-08-01T03:02:09;98935.22;;;15.02;88.76
44138;BME280;29800;55.942;37.314;2023-08-01T03:04:36;98933.88;;;15.51;89.38
44138;BME280;29800;55.942;37.314;2023-08-01T03:07:02;98940.19;;;15.98;88.44
44138;BME280;29800;55.942;37.314;2023-08-01T03:09:28;98940.91;;;16.46;86.38
44138;BME280;29800;55.942;37.314;2023-08-01T03:11:55;98938.06;;;16.37;84.61
44138;BME280;29800;55.942;37.314;2023-08-01T03:14:21;98942.97;;;16.26;84.47
44138;BME280;29800;55.942;37.314;2023-08-01T03:16:47;98941.53;;;16.15;84.73
44138;BME280;29800;55.942;37.314;2023-08-01T03:19:14;98945.00;;;16.07;85.41
44138;BME280;29800;55.942;37.314;2023-08-01T03:21:40;98938.28;;;15.99;85.66
44138;BME280;29800;55.942;37.314;2023-08-01T03:24:06;98944.09;;;15.97;85.65
44138;BME280;29800;55.942;37.314;2023-08-01T03:26:35;98947.16;;;15.96;85.67
44138;BME280;29800;55.942;37.314;2023-08-01T03:29:02;98951.53;;;15.97;85.60
44138;BME280;29800;55.942;37.314;2023-08-01T03:31:29;98947.38;;;15.99;85.82
44138;BME280;29800;55.942;37.314;2023-08-01T03:33:55;98951.97;;;16.04;85.74
44138;BME280;29800;55.942;37.314;2023-08-01T03:36:24;98948.31;;;16.09;85.90
44138;BME280;29800;55.942;37.314;2023-08-01T03:38:50;98955.97;;;16.12;86.01
44138;BME280;29800;55.942;37.314;2023-08-01T03:41:17;98954.22;;;16.16;85.98
44138;BME280;29800;55.942;37.314;2023-08-01T03:43:43;98951.38;;;16.21;85.82
44138;BME280;29800;55.942;37.314;2023-08-01T03:46:09;98950.16;;;16.27;85.87
44138;BME280;29800;55.942;37.314;2023-08-01T03:48:36;98952.19;;;16.35;86.09
44138;BME280;29800;55.942;37.314;2023-08-01T03:51:02;98959.44;;;16.45;86.20
44138;BME280;29800;55.942;37.314;2023-08-01T03:53:30;98968.97;;;16.53;86.55
44138;BME280;29800;55.942;37.314;2023-08-01T03:55:56;98962.19;;;16.59;86.42
44138;BME280;29800;55.942;37.314;2023-08-01T03:58:23;98966.66;;;16.69;86.23
44138;BME280;29800;55.942;37.314;2023-08-01T04:00:49;98975.88;;;16.78;86.18
44138;BME280;29800;55.942;37.314;2023-08-01T04:03:15;98977.13;;;16.86;86.26
44138;BME280;29800;55.942;37.314;2023-08-01T04:05:44;98974.44;;;16.95;85.56
44138;BME280;29800;55.942;37.314;2023-08-01T04:08:10;98974.50;;;17.03;85.37
44138;BME280;29800;55.942;37.314;2023-08-01T04:10:36;98974.28;;;17.14;84.74
44138;BME280;29800;55.942;37.314;2023-08-01T04:13:03;98975.69;;;17.25;84.58
44138;BME280;29800;55.942;37.314;2023-08-01T04:15:29;98976.56;;;17.34;84.60
44138;BME280;29800;55.942;37.314;2023-08-01T04:17:56;98974.38;;;17.45;84.22
44138;BME280;29800;55.942;37.314;2023-08-01T04:20:22;98981.28;;;17.56;84.19
44138;BME280;29800;55.942;37.314;2023-08-01T04:22:49;98972.72;;;17.67;83.48
44138;BME280;29800;55.942;37.314;2023-08-01T04:25:15;98974.09;;;17.78;83.38
44138;BME280;29800;55.942;37.314;2023-08-01T04:27:41;98973.53;;;17.90;83.35
44138;BME280;29800;55.942;37.314;2023-08-01T04:30:08;98976.53;;;18.02;83.29
44138;BME280;29800;55.942;37.314;2023-08-01T04:32:36;98976.75;;;18.14;82.87
44138;BME280;29800;55.942;37.314;2023-08-01T04:35:04;98976.47;;;18.25;83.19
44138;BME280;29800;55.942;37.314;2023-08-01T04:37:33;98973.09;;;18.36;82.83
44138;BME280;29800;55.942;37.314;2023-08-01T04:40:01;98965.78;;;18.49;82.74
44138;BME280;29800;55.942;37.314;2023-08-01T04:42:33;98965.50;;;18.60;82.26
44138;BME280;29800;55.942;37.314;2023-08-01T04:45:00;98966.00;;;18.70;81.32
44138;BME280;29800;55.942;37.314;2023-08-01T04:47:26;98970.91;;;18.82;80.99
44138;BME280;29800;55.942;37.314;2023-08-01T04:49:52;98965.91;;;18.93;79.93
44138;BME280;29800;55.942;37.314;2023-08-01T04:52:19;98970.81;;;19.05;79.08
44138;BME280;29800;55.942;37.314;2023-08-01T04:54:45;98967.38;;;19.17;79.33
44138;BME280;29800;55.942;37.314;2023-08-01T04:57:11;98965.13;;;19.27;78.33
44138;BME280;29800;55.942;37.314;2023-08-01T04:59:38;98964.78;;;19.38;76.78
44138;BME280;29800;55.942;37.314;2023-08-01T05:02:04;98963.28;;;19.49;76.69
44138;BME280;29800;55.942;37.314;2023-08-01T05:04:30;98959.69;;;19.57;76.20
44138;BME280;29800;55.942;37.314;2023-08-01T05:06:57;98958.69;;;19.71;76.84
44138;BME280;29800;55.942;37.314;2023-08-01T05:09:23;98972.59;;;19.79;75.72
44138;BME280;29800;55.942;37.314;2023-08-01T05:11:49;98968.97;;;19.88;75.76
44138;BME280;29800;55.942;37.314;2023-08-01T05:14:15;98973.03;;;19.99;75.23
44138;BME280;29800;55.942;37.314;2023-08-01T05:16:41;98969.38;;;20.16;76.04
44138;BME280;29800;55.942;37.314;2023-08-01T05:19:08;98972.94;;;20.25;74.00
44138;BME280;29800;55.942;37.314;2023-08-01T05:21:34;98970.78;;;20.31;72.93
44138;BME280;29800;55.942;37.314;2023-08-01T05:24:00;98977.94;;;20.41;72.47
44138;BME280;29800;55.942;37.314;2023-08-01T05:26:26;98967.59;;;20.50;72.94
44138;BME280;29800;55.942;37.314;2023-08-01T05:28:53;98973.91;;;20.59;72.87
44138;BME280;29800;55.942;37.314;2023-08-01T05:31:19;98967.38;;;20.64;71.02
44138;BME280;29800;55.942;37.314;2023-08-01T05:33:45;98968.94;;;20.73;71.07
44138;BME280;29800;55.942;37.314;2023-08-01T05:36:11;98970.84;;;20.82;70.48
44138;BME280;29800;55.942;37.314;2023-08-01T05:38:38;98973.44;;;20.87;70.44
44138;BME280;29800;55.942;37.314;2023-08-01T05:41:04;98973.72;;;20.94;70.28
44138;BME280;29800;55.942;37.314;2023-08-01T05:43:30;98979.56;;;21.01;69.13
44138;BME280;29800;55.942;37.314;2023-08-01T05:45:57;98967.56;;;21.09;68.72
44138;BME280;29800;55.942;37.314;2023-08-01T05:48:23;98976.88;;;21.14;69.17
44138;BME280;29800;55.942;37.314;2023-08-01T05:50:49;98978.28;;;21.20;69.03
44138;BME280;29800;55.942;37.314;2023-08-01T05:53:16;98981.13;;;21.32;68.58
44138;BME280;29800;55.942;37.314;2023-08-01T05:55:42;98972.69;;;21.41;68.00
44138;BME280;29800;55.942;37.314;2023-08-01T05:58:08;98977.88;;;21.51;67.24
44138;BME280;29800;55.942;37.314;2023-08-01T06:00:35;98985.19;;;21.56;66.98
44138;BME280;29800;55.942;37.314;2023-08-01T06:03:01;98982.47;;;21.68;67.69
44138;BME280;29800;55.942;37.314;2023-08-01T06:05:28;98985.97;;;21.77;65.25
44138;BME280;29800;55.942;37.314;2023-08-01T06:07:54;98977.03;;;21.84;64.73
44138;BME280;29800;55.942;37.314;2023-08-01T06:10:20;98984.38;;;21.89;65.57
44138;BME280;29800;55.942;37.314;2023-08-01T06:12:47;98988.22;;;21.96;65.45
44138;BME280;29800;55.942;37.314;2023-08-01T06:15:13;98985.34;;;22.05;64.94
44138;BME280;29800;55.942;37.314;2023-08-01T06:17:39;98975.84;;;22.18;64.76
44138;BME280;29800;55.942;37.314;2023-08-01T06:20:06;98976.25;;;22.29;63.59
44138;BME280;29800;55.942;37.314;2023-08-01T06:22:34;98975.44;;;22.41;63.05
44138;BME280;29800;55.942;37.314;2023-08-01T06:25:00;98970.56;;;22.50;61.42
44138;BME280;29800;55.942;37.314;2023-08-01T06:27:27;98978.22;;;22.66;62.13
44138;BME280;29800;55.942;37.314;2023-08-01T06:29:54;98971.94;;;22.81;60.07
44138;BME280;29800;55.942;37.314;2023-08-01T06:32:20;98983.31;;;22.88;61.21
44138;BME280;29800;55.942;37.314;2023-08-01T06:34:46;98975.53;;;22.94;60.79
44138;BME280;29800;55.942;37.314;2023-08-01T06:37:13;98977.38;;;23.15;59.35
44138;BME280;29800;55.942;37.314;2023-08-01T06:39:39;98988.38;;;23.23;58.30
44138;BME280;29800;55.942;37.314;2023-08-01T06:42:06;98986.28;;;23.33;57.60
44138;BME280;29800;55.942;37.314;2023-08-01T06:44:33;98977.59;;;23.50;56.62
44138;BME280;29800;55.942;37.314;2023-08-01T06:47:00;98976.84;;;23.65;57.11
44138;BME280;29800;55.942;37.314;2023-08-01T06:49:26;98976.13;;;23.68;54.67
44138;BME280;29800;55.942;37.314;2023-08-01T06:51:52;98980.28;;;23.75;56.14
44138;BME280;29800;55.942;37.314;2023-08-01T06:54:18;98978.38;;;23.91;57.77
44138;BME280;29800;55.942;37.314;2023-08-01T06:56:45;98978.00;;;23.93;56.94
44138;BME280;29800;55.942;37.314;2023-08-01T06:59:14;98978.94;;;24.13;57.14
44138;BME280;29800;55.942;37.314;2023-08-01T07:01:41;98986.25;;;24.17;55.24
44138;BME280;29800;55.942;37.314;2023-08-01T07:04:10;98988.84;;;24.26;56.23
44138;BME280;29800;55.942;37.314;2023-08-01T07:06:37;98978.47;;;24.27;53.31
44138;BME280;29800;55.942;37.314;2023-08-01T07:09:03;98983.97;;;24.23;53.71
44138;BME280;29800;55.942;37.314;2023-08-01T07:11:30;98986.69;;;24.35;55.27
44138;BME280;29800;55.942;37.314;2023-08-01T07:13:56;98979.91;;;24.52;54.47
44138;BME280;29800;55.942;37.314;2023-08-01T07:16:22;98985.63;;;24.24;55.33
44138;BME280;29800;55.942;37.314;2023-08-01T07:18:48;98987.13;;;24.21;55.40
44138;BME280;29800;55.942;37.314;2023-08-01T07:21:16;98988.66;;;24.51;55.11
44138;BME280;29800;55.942;37.314;2023-08-01T07:23:43;98991.13;;;24.68;55.53
44138;BME280;29800;55.942;37.314;2023-08-01T07:26:09;98983.16;;;24.86;52.54
44138;BME280;29800;55.942;37.314;2023-08-01T07:28:35;98984.69;;;24.84;53.64
44138;BME280;29800;55.942;37.314;2023-08-01T07:31:07;98983.28;;;25.09;52.11
44138;BME280;29800;55.942;37.314;2023-08-01T07:33:36;98988.34;;;25.39;50.11
44138;BME280;29800;55.942;37.314;2023-08-01T07:36:04;98986.28;;;25.56;51.82
44138;BME280;29800;55.942;37.314;2023-08-01T07:38:31;98988.94;;;25.68;49.87
44138;BME280;29800;55.942;37.314;2023-08-01T07:41:04;98989.72;;;25.68;49.32
44138;BME280;29800;55.942;37.314;2023-08-01T07:43:31;98983.97;;;25.22;47.61
44138;BME280;29800;55.942;37.314;2023-08-01T07:45:58;98988.13;;;25.12;47.66
44138;BME280;29800;55.942;37.314;2023-08-01T07:48:24;98981.59;;;25.24;49.98
44138;BME280;29800;55.942;37.314;2023-08-01T07:50:51;98989.13;;;25.40;50.73
44138;BME280;29800;55.942;37.314;2023-08-01T07:53:18;98987.31;;;25.47;49.04
44138;BME280;29800;55.942;37.314;2023-08-01T07:55:44;98980.44;;;25.64;49.40
44138;BME280;29800;55.942;37.314;2023-08-01T07:58:10;98981.69;;;25.67;48.19
44138;BME280;29800;55.942;37.314;2023-08-01T08:00:36;98980.91;;;25.66;48.06
44138;BME280;29800;55.942;37.314;2023-08-01T08:03:04;98980.78;;;25.63;48.88
44138;BME280;29800;55.942;37.314;2023-08-01T08:05:32;98978.03;;;25.43;48.98
44138;BME280;29800;55.942;37.314;2023-08-01T08:07:58;98975.00;;;25.33;50.33
44138;BME280;29800;55.942;37.314;2023-08-01T08:10:24;98975.06;;;25.36;49.72
44138;BME280;29800;55.942;37.314;2023-08-01T08:12:51;98977.00;;;25.32;47.77
44138;BME280;29800;55.942;37.314;2023-08-01T08:15:17;98967.97;;;25.23;50.08
44138;BME280;29800;55.942;37.314;2023-08-01T08:17:43;98974.66;;;25.18;50.95
44138;BME280;29800;55.942;37.314;2023-08-01T08:20:10;98979.56;;;25.05;51.25
44138;BME280;29800;55.942;37.314;2023-08-01T08:22:36;98975.88;;;25.01;50.37
44138;BME280;29800;55.942;37.314;2023-08-01T08:25:02;98970.44;;;25.08;50.70
44138;BME280;29800;55.942;37.314;2023-08-01T08:27:30;98980.41;;;25.06;50.24
44138;BME280;29800;55.942;37.314;2023-08-01T08:29:56;98968.66;;;25.00;50.84
44138;BME280;29800;55.942;37.314;2023-08-01T08:32:23;98964.53;;;24.94;51.22
44138;BME280;29800;55.942;37.314;2023-08-01T08:34:49;98971.94;;;25.02;51.63
44138;BME280;29800;55.942;37.314;2023-08-01T08:37:15;98959.19;;;25.24;51.39
44138;BME280;29800;55.942;37.314;2023-08-01T08:39:41;98959.47;;;25.35;50.28
44138;BME280;29800;55.942;37.314;2023-08-01T08:42:08;98969.47;;;25.36;50.49
44138;BME280;29800;55.942;37.314;2023-08-01T08:44:42;98964.91;;;25.47;49.07
44138;BME280;29800;55.942;37.314;2023-08-01T08:47:11;98956.78;;;25.42;49.90
44138;BME280;29800;55.942;37.314;2023-08-01T08:49:39;98956.00;;;25.42;51.75
44138;BME280;29800;55.942;37.314;2023-08-01T08:52:07;98963.56;;;25.41;50.18
44138;BME280;29800;55.942;37.314;2023-08-01T08:54:35;98963.56;;;25.61;50.48
44138;BME280;29800;55.942;37.314;2023-08-01T08:57:01;98964.28;;;25.58;50.49
44138;BME280;29800;55.942;37.314;2023-08-01T08:59:30;98972.56;;;25.50;49.73
44138;BME280;29800;55.942;37.314;2023-08-01T09:01:57;98969.03;;;25.54;48.38
44138;BME280;29800;55.942;37.314;2023-08-01T09:04:23;98962.09;;;25.47;49.00
44138;BME280;29800;55.942;37.314;2023-08-01T09:06:51;98964.09;;;25.66;48.79
44138;BME280;29800;55.942;37.314;2023-08-01T09:09:17;98963.53;;;25.80;49.26
44138;BME280;29800;55.942;37.314;2023-08-01T09:11:49;98968.88;;;26.09;48.59
44138;BME280;29800;55.942;37.314;2023-08-01T09:14:17;98959.72;;;26.35;48.99
44138;BME280;29800;55.942;37.314;2023-08-01T09:16:44;98965.69;;;26.56;47.56
44138;BME280;29800;55.942;37.314;2023-08-01T09:19:11;98957.84;;;26.66;44.98
44138;BME280;29800;55.942;37.314;2023-08-01T09:21:39;98953.69;;;26.59;44.07
44138;BME280;29800;55.942;37.314;2023-08-01T09:24:16;98956.22;;;26.65;46.61
44138;BME280;29800;55.942;37.314;2023-08-01T09:26:44;98952.09;;;26.58;46.71
44138;BME280;29800;55.942;37.314;2023-08-01T09:29:11;98951.69;;;26.83;46.35
44138;BME280;29800;55.942;37.314;2023-08-01T09:31:40;98949.59;;;27.07;46.13
44138;BME280;29800;55.942;37.314;2023-08-01T09:34:21;98950.31;;;27.00;45.71
44138;BME280;29800;55.942;37.314;2023-08-01T09:36:48;98944.44;;;26.55;47.39
44138;BME280;29800;55.942;37.314;2023-08-01T09:39:19;98948.88;;;26.56;45.91
44138;BME280;29800;55.942;37.314;2023-08-01T09:41:46;98938.84;;;26.82;45.51
44138;BME280;29800;55.942;37.314;2023-08-01T09:44:16;98945.06;;;27.25;42.45
44138;BME280;29800;55.942;37.314;2023-08-01T09:46:43;98947.69;;;27.45;43.77
44138;BME280;29800;55.942;37.314;2023-08-01T09:49:11;98940.22;;;27.56;40.82
44138;BME280;29800;55.942;37.314;2023-08-01T09:51:48;98936.34;;;27.68;44.16
44138;BME280;29800;55.942;37.314;2023-08-01T09:54:17;98933.66;;;27.82;43.16
44138;BME280;29800;55.942;37.314;2023-08-01T09:56:44;98934.03;;;28.18;41.59
44138;BME280;29800;55.942;37.314;2023-08-01T10:53:05;98914.22;;;28.56;41.63
44138;BME280;29800;55.942;37.314;2023-08-01T10:55:45;98903.22;;;28.92;39.61
44138;BME280;29800;55.942;37.314;2023-08-01T10:58:13;98907.34;;;29.12;38.80
44138;BME280;29800;55.942;37.314;2023-08-01T11:00:39;98909.41;;;29.19;36.97
44138;BME280;29800;55.942;37.314;2023-08-01T11:03:06;98908.06;;;28.99;40.38
44138;BME280;29800;55.942;37.314;2023-08-01T11:05:32;98905.56;;;28.83;38.65
44138;BME280;29800;55.942;37.314;2023-08-01T11:08:00;98913.47;;;28.59;38.86
44138;BME280;29800;55.942;37.314;2023-08-01T11:10:32;98914.16;;;28.45;39.92
44138;BME280;29800;55.942;37.314;2023-08-01T11:12:59;98917.38;;;28.44;40.96
44138;BME280;29800;55.942;37.314;2023-08-01T11:15:26;98910.69;;;28.11;45.14
44138;BME280;29800;55.942;37.314;2023-08-01T11:17:53;98895.94;;;28.28;40.79
44138;BME280;29800;55.942;37.314;2023-08-01T11:20:23;98907.94;;;28.73;39.77
44138;BME280;29800;55.942;37.314;2023-08-01T11:22:51;98893.59;;;29.00;39.34
44138;BME280;29800;55.942;37.314;2023-08-01T11:25:18;98899.13;;;28.78;43.43
44138;BME280;29800;55.942;37.314;2023-08-01T11:27:45;98897.47;;;28.74;38.86
44138;BME280;29800;55.942;37.314;2023-08-01T11:30:12;98900.94;;;28.53;38.08
44138;BME280;29800;55.942;37.314;2023-08-01T11:32:38;98902.31;;;28.70;41.25
44138;BME280;29800;55.942;37.314;2023-08-01T11:35:05;98894.69;;;28.77;40.02
44138;BME280;29800;55.942;37.314;2023-08-01T11:37:33;98891.16;;;28.88;38.89
44138;BME280;29800;55.942;37.314;2023-08-01T11:40:00;98889.91;;;28.82;37.49
44138;BME280;29800;55.942;37.314;2023-08-01T11:42:31;98891.16;;;28.88;38.80
44138;BME280;29800;55.942;37.314;2023-08-01T11:45:09;98892.41;;;28.98;39.31
44138;BME280;29800;55.942;37.314;2023-08-01T11:47:36;98895.22;;;28.98;38.09
44138;BME280;29800;55.942;37.314;2023-08-01T11:50:03;98893.59;;;29.00;38.24
44138;BME280;29800;55.942;37.314;2023-08-01T11:52:31;98894.44;;;29.08;40.25
44138;BME280;29800;55.942;37.314;2023-08-01T11:54:57;98894.38;;;28.90;38.51
44138;BME280;29800;55.942;37.314;2023-08-01T11:57:24;98893.47;;;28.71;39.55
44138;BME280;29800;55.942;37.314;2023-08-01T11:59:55;98896.59;;;28.59;41.11
44138;BME280;29800;55.942;37.314;2023-08-01T12:02:26;98893.25;;;28.46;39.70
44138;BME280;29800;55.942;37.314;2023-08-01T12:04:53;98897.41;;;28.11;40.31
44138;BME280;29800;55.942;37.314;2023-08-01T12:07:20;98889.31;;;28.02;40.67
44138;BME280;29800;55.942;37.314;2023-08-01T12:09:56;98888.81;;;27.93;43.71
44138;BME280;29800;55.942;37.314;2023-08-01T12:12:25;98885.75;;;27.68;44.11
44138;BME280;29800;55.942;37.314;2023-08-01T12:14:52;98874.03;;;27.28;46.23
44138;BME280;29800;55.942;37.314;2023-08-01T12:17:18;98875.06;;;27.13;45.78
44138;BME280;29800;55.942;37.314;2023-08-01T12:19:45;98874.66;;;27.11;46.22
44138;BME280;29800;55.942;37.314;2023-08-01T12:22:12;98875.75;;;27.03;47.27
44138;BME280;29800;55.942;37.314;2023-08-01T12:24:39;98875.94;;;27.17;43.86
44138;BME280;29800;55.942;37.314;2023-08-01T12:27:09;98870.41;;;27.24;45.10
44138;BME280;29800;55.942;37.314;2023-08-01T12:29:36;98865.03;;;27.46;44.48
44138;BME280;29800;55.942;37.314;2023-08-01T12:32:03;98867.50;;;27.51;45.67
44138;BME280;29800;55.942;37.314;2023-08-01T12:34:30;98870.47;;;27.65;43.67
44138;BME280;29800;55.942;37.314;2023-08-01T12:36:56;98873.25;;;27.62;42.42
44138;BME280;29800;55.942;37.314;2023-08-01T12:39:22;98863.91;;;27.50;42.32
44138;BME280;29800;55.942;37.314;2023-08-01T12:41:51;98865.75;;;27.36;42.27
44138;BME280;29800;55.942;37.314;2023-08-01T12:44:17;98868.78;;;27.23;41.97
44138;BME280;29800;55.942;37.314;2023-08-01T12:46:43;98879.06;;;27.12;42.88
44138;BME280;29800;55.942;37.314;2023-08-01T12:49:10;98880.16;;;27.04;43.83
44138;BME280;29800;55.942;37.314;2023-08-01T12:51:37;98877.66;;;26.95;44.02
44138;BME280;29800;55.942;37.314;2023-08-01T12:54:03;98876.66;;;26.80;43.87
44138;BME280;29800;55.942;37.314;2023-08-01T12:56:30;98873.78;;;26.73;43.63
44138;BME280;29800;55.942;37.314;2023-08-01T12:58:57;98884.47;;;26.64;45.04
44138;BME280;29800;55.942;37.314;2023-08-01T13:01:23;98881.19;;;26.62;44.61
44138;BME280;29800;55.942;37.314;2023-08-01T13:03:50;98873.78;;;26.73;45.99
44138;BME280;29800;55.942;37.314;2023-08-01T13:06:16;98871.47;;;26.82;43.45
44138;BME280;29800;55.942;37.314;2023-08-01T13:08:43;98870.50;;;26.98;44.47
44138;BME280;29800;55.942;37.314;2023-08-01T13:11:11;98875.00;;;27.06;43.16
44138;BME280;29800;55.942;37.314;2023-08-01T13:13:41;98871.50;;;27.16;44.38
44138;BME280;29800;55.942;37.314;2023-08-01T13:16:08;98866.31;;;27.18;43.30
44138;BME280;29800;55.942;37.314;2023-08-01T13:18:35;98863.28;;;27.30;45.33
44138;BME280;29800;55.942;37.314;2023-08-01T13:21:01;98857.66;;;27.30;44.67
44138;BME280;29800;55.942;37.314;2023-08-01T13:23:27;98864.13;;;27.35;42.85
44138;BME280;29800;55.942;37.314;2023-08-01T13:25:54;98857.66;;;27.30;44.37
44138;BME280;29800;55.942;37.314;2023-08-01T13:28:20;98867.53;;;27.17;44.05
44138;BME280;29800;55.942;37.314;2023-08-01T13:30:47;98865.38;;;27.07;44.30
44138;BME280;29800;55.942;37.314;2023-08-01T13:33:13;98856.06;;;26.99;45.68
44138;BME280;29800;55.942;37.314;2023-08-01T13:35:39;98856.34;;;26.90;45.43
44138;BME280;29800;55.942;37.314;2023-08-01T13:38:05;98857.03;;;26.80;45.32
44138;BME280;29800;55.942;37.314;2023-08-01T13:40:33;98853.69;;;26.71;44.61
44138;BME280;29800;55.942;37.314;2023-08-01T13:43:01;98858.44;;;26.67;46.42